Terminal Aerodrome Forecast
Issued by NWS

Home | Current Version | Previous Version | Text Only | Print | Product List | Glossary On
Versions: 1 2 3 4 5 6 7 8 9 10 11 12
000
FTUS42 TJSJ 282300 RRA
TAFISX
TAF
TISX 282343Z 2900/2924 01005KT P6SM VCSH FEW025 FEW060
     FM291300 11013KT P6SM SCT025
     FM292300 05006KT P6SM FEW025=

USA.gov is the U.S. government's official web portal to all federal, state and local government web resources and services.